createdAt,value
2019-03-23T00:00:40.127Z,240.28
2019-03-23T00:03:08.640Z,266.68
2019-03-23T00:05:37.058Z,247.22
2019-03-23T00:08:05.512Z,255.98
2019-03-23T00:10:34.394Z,270.95
2019-03-23T00:13:04.402Z,279.35
2019-03-23T00:15:32.973Z,269.45
2019-03-23T00:18:01.366Z,270.85
2019-03-23T00:20:29.995Z,300.73
2019-03-23T00:22:59.452Z,292.48
2019-03-23T00:25:27.857Z,288.27
2019-03-23T00:27:56.278Z,269.95
2019-03-23T00:30:24.682Z,265.80
2019-03-23T00:32:53.075Z,265.98
2019-03-23T00:35:21.472Z,246.57
2019-03-23T00:37:49.966Z,260.80
2019-03-23T00:40:18.348Z,244.07
2019-03-23T00:42:46.773Z,272.23
2019-03-23T00:45:15.239Z,285.98
2019-03-23T00:47:43.749Z,273.23
2019-03-23T00:50:12.435Z,276.32
2019-03-23T00:52:44.943Z,250.47
2019-03-23T00:55:15.405Z,248.17
2019-03-23T00:57:43.820Z,255.95
2019-03-23T01:00:13.365Z,247.93
2019-03-23T01:02:42.191Z,261.12
2019-03-23T01:05:11.010Z,236.00
2019-03-23T01:07:40.420Z,240.32
2019-03-23T01:10:11.743Z,230.15
2019-03-23T01:12:40.440Z,218.90
2019-03-23T01:15:10.914Z,223.75
2019-03-23T01:17:39.325Z,232.83
2019-03-23T01:20:10.368Z,245.12
2019-03-23T01:22:41.198Z,260.90
2019-03-23T01:25:11.149Z,280.95
2019-03-23T01:27:39.507Z,280.10
2019-03-23T01:30:10.808Z,277.18
2019-03-23T01:32:39.192Z,276.58
2019-03-23T01:35:09.376Z,244.87
2019-03-23T01:37:37.773Z,278.20
2019-03-23T01:40:07.716Z,279.77
2019-03-23T01:42:36.419Z,288.55
2019-03-23T01:45:07.959Z,278.85
2019-03-23T01:47:36.369Z,293.17
2019-03-23T01:50:07.954Z,270.73
2019-03-23T01:52:36.479Z,282.95
2019-03-23T01:55:06.958Z,279.93
2019-03-23T01:57:37.840Z,295.95
2019-03-23T02:00:11.167Z,259.43
2019-03-23T02:02:40.015Z,281.23
2019-03-23T02:05:08.940Z,256.05
2019-03-23T02:07:37.366Z,211.50
2019-03-23T02:10:08.909Z,213.82
2019-03-23T02:12:37.388Z,217.30
2019-03-23T02:15:08.490Z,236.35
2019-03-23T02:17:36.880Z,251.10
2019-03-23T02:20:13.181Z,259.02
2019-03-23T02:22:42.653Z,257.73
2019-03-23T02:25:13.245Z,276.10
2019-03-23T02:27:41.820Z,311.80
2019-03-23T02:30:14.068Z,394.67
2019-03-23T02:32:42.498Z,492.50
2019-03-23T02:35:11.145Z,533.30
2019-03-23T02:37:39.555Z,540.50
2019-03-23T02:40:10.148Z,500.32
2019-03-23T02:42:38.529Z,495.23
2019-03-23T02:45:10.287Z,500.77
2019-03-23T02:47:42.422Z,504.80
2019-03-23T02:50:11.488Z,523.73
2019-03-23T02:52:39.902Z,540.58
2019-03-23T02:55:11.737Z,538.50
2019-03-23T02:57:40.346Z,530.17
2019-03-23T03:00:14.298Z,473.10
2019-03-23T03:02:42.700Z,490.75
2019-03-23T03:05:11.956Z,490.38
2019-03-23T03:07:43.324Z,454.72
2019-03-23T03:10:12.379Z,456.45
2019-03-23T03:12:40.803Z,456.60
2019-03-23T03:15:10.173Z,432.17
2019-03-23T03:17:38.656Z,407.35
2019-03-23T03:20:10.117Z,413.22
2019-03-23T03:22:42.311Z,405.50
2019-03-23T03:25:10.796Z,410.93
2019-03-23T03:27:39.223Z,404.07
2019-03-23T03:30:11.575Z,380.63
2019-03-23T03:32:40.026Z,374.52
2019-03-23T03:35:08.869Z,370.20
2019-03-23T03:37:37.297Z,354.40
2019-03-23T03:40:08.018Z,332.05
2019-03-23T03:42:36.425Z,331.23
2019-03-23T03:45:10.011Z,325.77
2019-03-23T03:47:41.250Z,316.88
2019-03-23T03:50:09.862Z,306.45
2019-03-23T03:52:38.789Z,303.02
2019-03-23T03:55:08.690Z,287.48
2019-03-23T03:57:37.096Z,268.30
2019-03-23T04:00:09.836Z,231.53
2019-03-23T04:02:38.645Z,237.90
2019-03-23T04:05:07.901Z,237.30
2019-03-23T04:07:36.341Z,232.55
2019-03-23T04:10:06.787Z,219.30
2019-03-23T04:12:35.223Z,216.40
2019-03-23T04:15:04.988Z,213.95
2019-03-23T04:17:33.391Z,206.05
2019-03-23T04:20:01.814Z,195.18
2019-03-23T04:22:30.212Z,197.32
2019-03-23T04:25:02.446Z,200.10
2019-03-23T04:27:30.827Z,190.75
2019-03-23T04:29:59.273Z,189.30
2019-03-23T04:32:27.735Z,208.10
2019-03-23T04:34:56.174Z,211.20
2019-03-23T04:37:24.796Z,206.63
2019-03-23T04:39:53.220Z,209.12
2019-03-23T04:42:21.648Z,200.10
2019-03-23T04:44:50.049Z,198.17
2019-03-23T04:47:18.526Z,216.00
2019-03-23T04:49:46.910Z,198.62
2019-03-23T04:52:16.862Z,210.23
2019-03-23T04:54:45.283Z,207.35
2019-03-23T04:57:13.670Z,204.90
2019-03-23T04:59:42.092Z,222.12
2019-03-23T05:02:10.507Z,212.93
2019-03-23T05:04:38.898Z,202.57
2019-03-23T05:07:07.303Z,208.05
2019-03-23T05:09:35.716Z,210.80
2019-03-23T05:12:04.276Z,214.88
2019-03-23T05:14:35.211Z,217.67
2019-03-23T05:17:03.602Z,216.65
2019-03-23T05:19:32.036Z,217.27
2019-03-23T05:22:00.427Z,217.03
2019-03-23T05:24:28.855Z,211.70
2019-03-23T05:26:57.278Z,214.45
2019-03-23T05:29:25.692Z,200.15
2019-03-23T05:31:54.112Z,208.13
2019-03-23T05:34:22.818Z,237.35
2019-03-23T05:36:51.256Z,215.85
2019-03-23T05:39:19.700Z,204.57
2019-03-23T05:41:48.487Z,184.80
2019-03-23T05:44:16.917Z,195.57
2019-03-23T05:46:45.342Z,195.25
2019-03-23T05:49:13.737Z,195.55
2019-03-23T05:51:42.362Z,199.00
2019-03-23T05:54:10.801Z,192.55
2019-03-23T05:56:39.210Z,221.00
2019-03-23T05:59:07.695Z,203.55
2019-03-23T06:01:36.114Z,220.45
2019-03-23T06:04:04.683Z,219.15
2019-03-23T06:06:33.080Z,213.92
2019-03-23T06:09:01.547Z,229.97
2019-03-23T06:11:29.942Z,212.60
2019-03-23T06:13:58.340Z,216.57
2019-03-23T06:16:28.353Z,198.50
2019-03-23T06:18:56.758Z,191.18
2019-03-23T06:21:25.199Z,176.02
2019-03-23T06:23:53.620Z,190.68
2019-03-23T06:26:22.041Z,192.85
2019-03-23T06:28:50.433Z,206.85
2019-03-23T06:31:18.887Z,193.72
2019-03-23T06:33:47.287Z,202.70
2019-03-23T06:36:15.721Z,198.93
2019-03-23T06:38:44.988Z,205.37
2019-03-23T06:41:13.394Z,219.40
2019-03-23T06:43:41.809Z,220.27
2019-03-23T06:46:10.222Z,190.65
2019-03-23T06:48:38.640Z,189.95
2019-03-23T06:51:07.056Z,181.75
2019-03-23T06:53:35.458Z,181.55
2019-03-23T06:56:03.923Z,182.93
2019-03-23T06:58:32.346Z,178.50
2019-03-23T07:01:03.000Z,168.17
2019-03-23T07:03:31.373Z,167.77
2019-03-23T07:06:01.812Z,174.70
2019-03-23T07:08:32.133Z,171.77
2019-03-23T07:11:02.493Z,167.25
2019-03-23T07:13:30.918Z,184.67
2019-03-23T07:15:59.314Z,162.90
2019-03-23T07:18:27.716Z,172.28
2019-03-23T07:20:56.111Z,186.88
2019-03-23T07:23:24.529Z,162.45
2019-03-23T07:25:52.924Z,170.92
2019-03-23T07:28:21.362Z,168.37
2019-03-23T07:30:49.771Z,155.30
2019-03-23T07:33:18.986Z,166.80
2019-03-23T07:35:50.092Z,158.40
2019-03-23T07:38:18.465Z,160.55
2019-03-23T07:40:48.027Z,146.53
2019-03-23T07:43:16.436Z,156.82
2019-03-23T07:46:28.234Z,156.72
2019-03-23T07:48:56.654Z,165.45
2019-03-23T07:51:25.052Z,163.63
2019-03-23T07:53:53.516Z,148.25
2019-03-23T07:56:23.387Z,158.87
2019-03-23T07:58:51.787Z,153.47
2019-03-23T08:01:20.172Z,155.18
2019-03-23T08:03:50.590Z,146.28
2019-03-23T08:06:18.711Z,143.82
2019-03-23T08:08:47.105Z,129.27
2019-03-23T08:11:15.519Z,134.15
2019-03-23T08:13:43.925Z,131.37
2019-03-23T08:16:12.329Z,147.60
2019-03-23T08:18:43.141Z,134.90
2019-03-23T08:21:11.538Z,123.53
2019-03-23T08:23:41.564Z,125.95
2019-03-23T08:26:09.932Z,130.65
2019-03-23T08:28:38.352Z,126.75
2019-03-23T08:31:09.116Z,129.68
2019-03-23T08:33:37.811Z,135.63
2019-03-23T08:36:06.211Z,128.07
2019-03-23T08:38:34.639Z,123.70
2019-03-23T08:41:03.052Z,125.45
2019-03-23T08:43:31.460Z,120.13
2019-03-23T08:46:46.378Z,127.60
2019-03-23T08:49:14.921Z,117.13
2019-03-23T08:51:43.325Z,120.45
2019-03-23T08:54:16.432Z,114.00
2019-03-23T08:56:44.519Z,110.25
2019-03-23T09:00:07.495Z,113.60
2019-03-23T09:02:36.053Z,118.50
2019-03-23T09:06:06.968Z,113.83
2019-03-23T09:08:35.383Z,114.57
2019-03-23T09:11:03.811Z,112.60
2019-03-23T09:15:16.827Z,128.32
2019-03-23T09:19:05.991Z,117.45
2019-03-23T09:21:34.423Z,126.80
2019-03-23T09:24:58.703Z,126.50
2019-03-23T09:27:35.983Z,116.17
2019-03-23T09:30:03.142Z,130.47
2019-03-23T09:33:47.053Z,118.40
2019-03-23T09:36:15.465Z,119.30
2019-03-23T09:40:10.066Z,120.02
2019-03-23T09:44:25.167Z,110.57
2019-03-23T09:48:44.094Z,114.28
2019-03-23T09:52:52.006Z,109.75
2019-03-23T09:56:51.623Z,105.12
2019-03-23T10:03:34.048Z,110.90
2019-03-23T10:06:02.426Z,113.37
2019-03-23T10:08:30.996Z,113.22
2019-03-23T10:11:03.236Z,110.42
2019-03-23T10:13:31.668Z,108.03
2019-03-23T10:16:00.162Z,106.55
2019-03-23T10:18:28.550Z,108.37
2019-03-23T10:21:00.538Z,106.50
2019-03-23T10:23:28.933Z,111.70
2019-03-23T10:26:00.485Z,113.92
2019-03-23T10:28:41.794Z,113.97
2019-03-23T10:31:34.046Z,111.73
2019-03-23T10:34:04.513Z,117.42
2019-03-23T10:36:37.309Z,112.77
2019-03-23T10:39:06.912Z,112.47
2019-03-23T10:41:36.402Z,117.27
2019-03-23T10:45:26.370Z,110.37
2019-03-23T10:49:51.522Z,113.57
2019-03-23T10:52:26.534Z,115.70
2019-03-23T10:54:54.982Z,110.88
2019-03-23T10:57:23.523Z,115.95
2019-03-23T10:59:51.949Z,113.08
2019-03-23T11:02:20.343Z,111.52
2019-03-23T11:04:48.831Z,119.17
2019-03-23T11:07:56.160Z,117.47
2019-03-23T11:12:22.292Z,108.95
2019-03-23T11:14:50.698Z,109.20
2019-03-23T11:18:54.546Z,106.83
2019-03-23T11:21:22.949Z,117.42
2019-03-23T11:24:03.572Z,117.10
2019-03-23T11:28:22.350Z,109.35
2019-03-23T11:30:50.828Z,99.92
2019-03-23T11:34:40.725Z,104.03
2019-03-23T11:37:13.920Z,96.20
2019-03-23T11:39:42.353Z,98.93
2019-03-23T11:42:11.074Z,107.60
2019-03-23T11:45:26.702Z,106.90
2019-03-23T11:47:55.193Z,110.72
2019-03-23T11:50:26.109Z,106.80
2019-03-23T11:55:03.238Z,92.60
2019-03-23T11:57:34.185Z,112.77
2019-03-23T12:00:18.143Z,104.55
2019-03-23T12:02:49.033Z,102.82
2019-03-23T12:05:32.514Z,106.33
2019-03-23T12:08:00.934Z,111.40
2019-03-23T12:10:32.866Z,107.13
2019-03-23T12:13:01.309Z,110.10
2019-03-23T12:15:29.910Z,118.13
2019-03-23T12:18:04.683Z,107.85
2019-03-23T12:20:30.988Z,122.75
2019-03-23T12:23:14.711Z,110.17
2019-03-23T12:25:43.162Z,112.03
2019-03-23T12:28:20.300Z,112.42
2019-03-23T12:31:14.983Z,107.03
2019-03-23T12:33:43.450Z,106.37
2019-03-23T12:36:14.303Z,98.87
2019-03-23T12:38:51.755Z,110.25
2019-03-23T12:41:23.411Z,96.63
2019-03-23T12:43:52.850Z,87.88
2019-03-23T12:46:21.263Z,90.10
2019-03-23T12:48:53.423Z,89.20
2019-03-23T12:51:21.863Z,85.53
2019-03-23T12:53:50.526Z,75.42
2019-03-23T12:56:19.049Z,79.53
2019-03-23T12:58:49.733Z,73.65
2019-03-23T13:01:18.613Z,79.12
2019-03-23T13:03:47.181Z,76.92
2019-03-23T13:06:15.641Z,76.47
2019-03-23T13:08:44.085Z,78.15
2019-03-23T13:11:22.776Z,73.67
2019-03-23T13:13:43.562Z,69.30
2019-03-23T13:16:12.154Z,64.77
2019-03-23T13:18:40.549Z,54.30
2019-03-23T13:21:12.107Z,57.73
2019-03-23T13:23:43.230Z,61.77
2019-03-23T13:26:14.954Z,53.80
2019-03-23T13:28:51.329Z,58.40
2019-03-23T13:31:19.739Z,51.70
2019-03-23T13:33:48.130Z,49.03
2019-03-23T13:36:51.451Z,44.37
2019-03-23T13:38:59.761Z,50.73
2019-03-23T13:41:28.163Z,42.67
2019-03-23T13:43:59.232Z,45.67
2019-03-23T13:46:27.675Z,49.37
2019-03-23T13:48:58.709Z,45.25
2019-03-23T13:51:31.923Z,37.20
2019-03-23T13:54:04.501Z,40.83
2019-03-23T13:56:33.014Z,28.98
2019-03-23T13:59:05.261Z,32.38
2019-03-23T14:01:33.635Z,31.90
2019-03-23T14:04:06.529Z,20.35
2019-03-23T14:06:34.924Z,19.07
2019-03-23T14:09:06.349Z,14.93
2019-03-23T14:11:34.763Z,18.53
2019-03-23T14:14:09.234Z,15.35
2019-03-23T14:17:26.836Z,22.87
2019-03-23T14:19:55.262Z,14.75
2019-03-23T14:22:27.553Z,11.10
2019-03-23T14:25:00.433Z,10.90
2019-03-23T14:27:28.853Z,13.00
2019-03-23T14:29:57.239Z,13.60
2019-03-23T14:32:25.614Z,12.20
2019-03-23T14:34:54.024Z,18.10
2019-03-23T14:37:22.413Z,9.10
2019-03-23T14:41:33.872Z,11.40
2019-03-23T14:44:02.255Z,8.80
2019-03-23T14:46:30.645Z,14.30
2019-03-23T14:49:53.420Z,11.75
2019-03-23T14:52:31.447Z,9.83
2019-03-23T14:55:33.219Z,9.30
2019-03-23T14:57:45.061Z,8.80
2019-03-23T15:00:20.113Z,8.77
2019-03-23T15:02:48.530Z,8.80
2019-03-23T15:05:27.735Z,12.88
2019-03-23T15:07:56.051Z,5.95
2019-03-23T15:11:08.999Z,11.23
2019-03-23T15:13:39.388Z,14.33
2019-03-23T15:16:07.802Z,13.28
2019-03-23T15:18:36.189Z,10.45
2019-03-23T15:21:04.683Z,9.00
2019-03-23T15:23:33.065Z,9.28
2019-03-23T15:26:15.348Z,13.10
2019-03-23T15:28:45.404Z,14.45
2019-03-23T15:31:26.452Z,7.70
2019-03-23T15:33:54.863Z,9.53
2019-03-23T15:36:23.254Z,13.55
2019-03-23T15:38:51.665Z,11.55
2019-03-23T15:41:20.083Z,11.60
2019-03-23T15:43:51.520Z,7.53
2019-03-23T15:46:27.754Z,18.17
2019-03-23T15:48:56.197Z,10.45
2019-03-23T15:52:21.612Z,12.17
2019-03-23T15:54:50.017Z,17.75
2019-03-23T15:57:19.627Z,10.82
2019-03-23T16:01:01.707Z,12.98
2019-03-23T16:03:30.207Z,19.37
2019-03-23T16:06:23.778Z,17.27
2019-03-23T16:08:52.161Z,14.58
2019-03-23T16:11:23.080Z,9.40
2019-03-23T16:13:53.224Z,15.03
2019-03-23T16:16:21.739Z,16.47
2019-03-23T16:18:53.146Z,13.35
2019-03-23T16:21:21.611Z,13.23
2019-03-23T16:23:56.690Z,13.95
2019-03-23T16:26:25.107Z,19.20
2019-03-23T16:28:53.515Z,21.57
2019-03-23T16:31:21.918Z,18.80
2019-03-23T16:33:50.313Z,19.02
2019-03-23T16:36:18.758Z,26.87
2019-03-23T16:39:04.084Z,21.10
2019-03-23T16:41:35.214Z,12.30
2019-03-23T16:44:03.602Z,15.90
2019-03-23T16:46:36.227Z,15.63
2019-03-23T16:49:05.231Z,20.17
2019-03-23T16:51:33.618Z,18.00
2019-03-23T16:54:52.568Z,18.67
2019-03-23T16:57:23.389Z,19.98
2019-03-23T16:59:51.800Z,15.95
2019-03-23T17:02:20.194Z,17.37
2019-03-23T17:07:29.308Z,16.27
2019-03-23T17:09:57.722Z,15.08
2019-03-23T17:12:26.101Z,19.25
2019-03-23T17:14:54.527Z,12.73
2019-03-23T17:17:22.932Z,11.43
2019-03-23T17:19:57.050Z,15.32
2019-03-23T17:22:27.064Z,12.43
2019-03-23T17:24:55.469Z,13.03
2019-03-23T17:27:30.389Z,14.45
2019-03-23T17:30:01.240Z,18.73
2019-03-23T17:32:51.520Z,10.13
2019-03-23T17:35:22.743Z,9.95
2019-03-23T17:37:51.129Z,19.00
2019-03-23T17:40:20.595Z,13.58
2019-03-23T17:42:49.551Z,13.30
2019-03-23T17:45:18.535Z,15.03
2019-03-23T17:47:46.958Z,17.25
2019-03-23T17:50:15.839Z,12.95
2019-03-23T17:52:44.418Z,12.18
2019-03-23T17:55:15.333Z,17.50
2019-03-23T17:57:46.830Z,14.53
2019-03-23T18:00:16.104Z,13.77
2019-03-23T18:02:44.513Z,12.13
2019-03-23T18:05:18.041Z,11.75
2019-03-23T18:07:46.448Z,12.82
2019-03-23T18:10:15.051Z,13.22
2019-03-23T18:12:43.468Z,9.45
2019-03-23T18:15:15.650Z,11.90
2019-03-23T18:17:58.506Z,11.40
2019-03-23T18:20:26.893Z,13.45
2019-03-23T18:22:57.950Z,11.53
2019-03-23T18:25:26.337Z,12.07
2019-03-23T18:27:54.797Z,9.80
2019-03-23T18:30:40.781Z,17.55
2019-03-23T18:33:09.543Z,14.30
2019-03-23T18:35:38.023Z,14.98
2019-03-23T18:38:06.417Z,14.68
2019-03-23T18:40:37.575Z,16.73
2019-03-23T18:43:06.816Z,17.98
2019-03-23T18:45:39.414Z,22.82
2019-03-23T18:48:07.887Z,17.40
2019-03-23T18:50:36.254Z,22.82
2019-03-23T18:53:05.051Z,17.65
2019-03-23T18:55:33.467Z,14.33
2019-03-23T18:58:02.113Z,17.55
2019-03-23T19:00:36.171Z,19.50
2019-03-23T19:03:05.103Z,20.90
2019-03-23T19:05:37.386Z,13.88
2019-03-23T19:08:11.799Z,27.55
2019-03-23T19:10:39.880Z,15.37
2019-03-23T19:13:08.330Z,19.40
2019-03-23T19:15:38.806Z,21.17
2019-03-23T19:18:09.986Z,21.85
2019-03-23T19:20:42.261Z,19.12
2019-03-23T19:23:13.329Z,16.90
2019-03-23T19:25:41.738Z,23.63
2019-03-23T19:28:10.436Z,23.18
2019-03-23T19:30:46.018Z,22.87
2019-03-23T19:33:14.462Z,23.80
2019-03-23T19:35:47.809Z,17.95
2019-03-23T19:38:18.207Z,23.07
2019-03-23T19:40:46.746Z,31.53
2019-03-23T19:43:15.603Z,32.42
2019-03-23T19:45:47.904Z,24.87
2019-03-23T19:48:16.448Z,27.70
2019-03-23T19:50:44.837Z,17.57
2019-03-23T19:53:14.185Z,25.17
2019-03-23T19:55:43.545Z,25.00
2019-03-23T19:58:11.974Z,23.38
2019-03-23T20:00:40.404Z,30.35
2019-03-23T20:03:08.850Z,25.68
2019-03-23T20:05:40.924Z,24.25
2019-03-23T20:08:09.432Z,26.55
2019-03-23T20:10:41.276Z,24.05
2019-03-23T20:13:09.738Z,28.42
2019-03-23T20:15:39.238Z,23.57
2019-03-23T20:18:10.149Z,25.48
2019-03-23T20:20:38.619Z,31.07
2019-03-23T20:23:07.044Z,27.87
2019-03-23T20:25:35.416Z,26.52
2019-03-23T20:28:03.813Z,24.18
2019-03-23T20:30:32.231Z,33.45
2019-03-23T20:33:00.758Z,27.25
2019-03-23T20:35:29.334Z,27.17
2019-03-23T20:37:57.737Z,33.02
2019-03-23T20:40:26.286Z,24.02
2019-03-23T20:42:54.788Z,33.38
2019-03-23T20:45:33.253Z,31.15
2019-03-23T20:48:05.312Z,24.40
2019-03-23T20:50:34.754Z,34.80
2019-03-23T20:53:03.893Z,30.32
2019-03-23T20:55:32.292Z,29.18
2019-03-23T20:58:03.428Z,29.98
2019-03-23T21:00:31.826Z,34.03
2019-03-23T21:03:11.083Z,28.25
2019-03-23T21:05:48.809Z,25.88
2019-03-23T21:08:17.205Z,29.90
2019-03-23T21:10:50.930Z,30.85
2019-03-23T21:13:28.319Z,30.02
2019-03-23T21:16:00.814Z,31.57
2019-03-23T21:21:00.603Z,24.05
2019-03-23T21:23:31.714Z,23.27
2019-03-23T21:26:00.112Z,21.90
2019-03-23T21:28:28.533Z,22.07
2019-03-23T21:31:00.744Z,29.00
2019-03-23T21:33:39.032Z,27.75
2019-03-23T21:36:06.506Z,32.48
2019-03-23T21:38:34.913Z,24.52
2019-03-23T21:41:06.056Z,33.83
2019-03-23T21:43:34.445Z,30.92
2019-03-23T21:46:02.941Z,27.67
2019-03-23T21:48:31.366Z,36.00
2019-03-23T21:50:59.806Z,30.70
2019-03-23T21:53:28.196Z,25.08
2019-03-23T21:55:56.593Z,26.12
2019-03-23T21:58:24.995Z,31.30
2019-03-23T22:00:57.693Z,28.57
2019-03-23T22:03:26.110Z,35.75
2019-03-23T22:05:54.499Z,31.77
2019-03-23T22:08:22.894Z,29.12
2019-03-23T22:10:51.285Z,34.15
2019-03-23T22:13:19.888Z,30.68
2019-03-23T22:15:52.388Z,39.05
2019-03-23T22:20:50.881Z,31.20
2019-03-23T22:23:19.275Z,30.82
2019-03-23T22:25:51.213Z,26.23
2019-03-23T22:28:23.300Z,31.50
2019-03-23T22:30:57.237Z,32.15
2019-03-23T22:33:27.777Z,27.95
2019-03-23T22:35:56.178Z,34.60
2019-03-23T22:38:24.599Z,31.42
2019-03-23T22:40:55.400Z,39.53
2019-03-23T22:43:23.895Z,33.48
2019-03-23T22:45:53.417Z,34.53
2019-03-23T22:48:21.812Z,34.65
2019-03-23T22:50:50.286Z,36.60
2019-03-23T22:53:19.625Z,29.12
2019-03-23T22:55:48.025Z,30.92
2019-03-23T22:58:16.473Z,31.02
2019-03-23T23:00:48.487Z,26.07
2019-03-23T23:03:17.752Z,28.20
2019-03-23T23:05:46.503Z,30.88
2019-03-23T23:08:17.211Z,35.17
2019-03-23T23:10:45.623Z,39.05
2019-03-23T23:13:17.512Z,34.53
2019-03-23T23:15:47.436Z,26.57
2019-03-23T23:18:16.886Z,32.80
2019-03-23T23:20:49.322Z,36.77
2019-03-23T23:25:46.433Z,35.73
2019-03-23T23:28:14.998Z,32.58
2019-03-23T23:30:43.405Z,35.45
2019-03-23T23:33:16.682Z,36.33
2019-03-23T23:35:44.362Z,32.08
2019-03-23T23:38:15.647Z,38.70
2019-03-23T23:40:44.071Z,45.33
2019-03-23T23:43:16.361Z,30.68
2019-03-23T23:45:44.775Z,28.73
2019-03-23T23:48:13.191Z,33.45
2019-03-23T23:50:41.587Z,32.48
2019-03-23T23:53:10.532Z,36.30
2019-03-23T23:55:38.958Z,24.50
2019-03-23T23:58:07.380Z,38.40
